»·PEaware :: SWA4426 KPSP-KDEN

SWA4426 :: KPSP-KDEN

FLIGHT INFORMATION

Flight Status: Arrived
Operator:
Southwest Airlines
More flights by this operator :: More flights under this callsign
Pilot: Tristan Z. (4790)
Aircraft: BOEING 737-700
(B737)
More flights by this aircraft type
Origin: KPSP Palm Springs Intl
United States
Destination: KDEN Denver Intl
United States
More flights between these airports :: More routes between these airports
Route: CATH1 PSP V370 TNP EED J236 TBC SHNPS TBARR1
File this flight plan on PilotEdge
Remarks:
Altitude:
(Current/Filed)
35,000ft
Speed:
(Current/Filed)
355kts
Departed: 27-Dec-20 07:57 PM
Arrived: 27-Dec-20 09:25 PM
Distance/Time
Traveled:
673nm/1:28
Distance/Time
To Go:
Arrived

Flight Plot

Page will automatically refresh every two minutes.

Flight plan parsing failed; only flown route is shown


Map Options




Map Legend


Flown Route
Filed Route
Departure Airport
Arrival Airport
Navaid (VOR, NDB)
Fix

Horizontal Profiles

Position Reports

Time Latitude Longitude Heading Altitude Ground
Speed
27-Dec-20 19:38 33.823453 -116.505881 253 485ft 0kts
27-Dec-20 19:39 33.823453 -116.505881 253 485ft 0kts
27-Dec-20 19:40 33.823453 -116.505881 253 485ft 0kts
27-Dec-20 19:42 33.823453 -116.505881 253 484ft 0kts
27-Dec-20 19:43 33.823453 -116.505881 253 484ft 0kts
27-Dec-20 19:44 33.823453 -116.505881 253 484ft 0kts
27-Dec-20 19:45 33.823453 -116.505881 253 484ft 0kts
27-Dec-20 19:46 33.823453 -116.505881 253 484ft 0kts
27-Dec-20 19:47 33.823453 -116.505881 253 484ft 0kts
27-Dec-20 19:48 33.823453 -116.505881 253 484ft 0kts
27-Dec-20 19:49 33.823459 -116.505855 254 485ft 2kts
27-Dec-20 19:50 33.823601 -116.505261 222 485ft 1kts
27-Dec-20 19:51 33.823783 -116.505301 142 485ft 0kts
27-Dec-20 19:52 33.823638 -116.505168 142 485ft 3kts
27-Dec-20 19:53 33.823224 -116.504392 98 485ft 9kts
27-Dec-20 19:54 33.819075 -116.500316 143 484ft 12kts
27-Dec-20 19:55 33.818529 -116.499194 91 485ft 3kts
27-Dec-20 19:56 33.818635 -116.498077 41 484ft 8kts
27-Dec-20 19:57 33.838342 -116.515463 320 1272ft 163kts
27-Dec-20 19:57 33.870570 -116.543699 321 3527ft 186kts
27-Dec-20 19:58 33.915293 -116.517768 93 5377ft 276kts
27-Dec-20 20:00 33.879743 -116.419057 91 7008ft 295kts
27-Dec-20 20:01 33.908793 -116.324725 67 9025ft 314kts
27-Dec-20 20:01 33.939853 -116.240927 68 11297ft 357kts
27-Dec-20 20:02 33.982010 -116.126484 68 12989ft 382kts
27-Dec-20 20:04 34.032020 -115.989920 68 13068ft 380kts
27-Dec-20 20:04 34.067507 -115.892728 68 13078ft 380kts
27-Dec-20 20:05 34.110515 -115.775238 66 14072ft 386kts
27-Dec-20 20:06 34.168390 -115.660154 59 16931ft 415kts
27-Dec-20 20:07 34.230237 -115.539393 59 19457ft 432kts
27-Dec-20 20:08 34.294638 -115.413142 59 21384ft 450kts
27-Dec-20 20:09 34.361341 -115.281991 60 22966ft 473kts
27-Dec-20 20:10 34.429939 -115.146669 59 24043ft 478kts
27-Dec-20 20:11 34.500280 -115.007179 58 26127ft 496kts
27-Dec-20 20:12 34.573285 -114.861837 58 27983ft 514kts
27-Dec-20 20:13 34.648635 -114.711193 58 29689ft 533kts
27-Dec-20 20:14 34.726237 -114.555357 58 31557ft 543kts
27-Dec-20 20:15 34.800771 -114.396140 62 33500ft 546kts
27-Dec-20 20:16 34.872838 -114.232555 62 34948ft 555kts
27-Dec-20 20:17 34.946700 -114.064517 62 34998ft 566kts
27-Dec-20 20:18 35.020409 -113.896013 63 35019ft 564kts
27-Dec-20 20:19 35.094085 -113.726763 63 35023ft 564kts
27-Dec-20 20:20 35.167117 -113.558139 63 35012ft 564kts
27-Dec-20 20:21 35.240282 -113.388351 63 35016ft 564kts
27-Dec-20 20:22 35.313052 -113.218854 63 35006ft 564kts
27-Dec-20 20:23 35.385485 -113.049061 63 35037ft 564kts
27-Dec-20 20:24 35.458133 -112.877912 63 35047ft 568kts
27-Dec-20 20:25 35.530964 -112.705431 63 35052ft 571kts
27-Dec-20 20:26 35.603340 -112.533132 62 35065ft 570kts
27-Dec-20 20:27 35.675788 -112.359776 63 35078ft 570kts
27-Dec-20 20:28 35.747887 -112.186576 63 35063ft 570kts
27-Dec-20 20:29 35.819285 -112.013928 63 35068ft 570kts
27-Dec-20 20:30 35.890118 -111.841739 63 35072ft 570kts
27-Dec-20 20:31 35.961303 -111.667772 63 35077ft 570kts
27-Dec-20 20:32 36.032504 -111.492893 63 35087ft 569kts
27-Dec-20 20:33 36.103147 -111.318410 64 35123ft 569kts
27-Dec-20 20:34 36.182713 -111.148137 57 35146ft 570kts
27-Dec-20 20:35 36.266119 -110.982746 56 35152ft 569kts
27-Dec-20 20:36 36.345371 -110.824744 55 35156ft 569kts
27-Dec-20 20:37 36.432903 -110.649339 56 35162ft 569kts
27-Dec-20 20:38 36.513745 -110.486533 55 35166ft 569kts
27-Dec-20 20:39 36.599525 -110.312950 56 35179ft 568kts
27-Dec-20 20:40 36.682103 -110.145167 56 35249ft 569kts
27-Dec-20 20:41 36.764502 -109.976784 56 35259ft 569kts
27-Dec-20 20:42 36.846517 -109.808354 56 35264ft 569kts
27-Dec-20 20:43 36.928319 -109.639447 56 35268ft 569kts
27-Dec-20 20:44 37.009678 -109.470609 56 35273ft 568kts
27-Dec-20 20:45 37.091081 -109.300918 57 35251ft 566kts
27-Dec-20 20:46 37.171568 -109.132310 57 35237ft 567kts
27-Dec-20 20:47 37.252365 -108.962054 56 35196ft 569kts
27-Dec-20 20:48 37.332885 -108.791510 56 35194ft 568kts
27-Dec-20 20:49 37.413395 -108.620090 56 35199ft 569kts
27-Dec-20 20:50 37.493200 -108.449290 56 35203ft 568kts
27-Dec-20 20:51 37.572989 -108.277783 56 35171ft 568kts
27-Dec-20 20:52 37.652832 -108.105194 57 35163ft 569kts
27-Dec-20 20:53 37.732082 -107.932882 57 35168ft 569kts
27-Dec-20 20:54 37.811283 -107.759771 57 35172ft 569kts
27-Dec-20 20:55 37.890178 -107.586380 56 35177ft 569kts
27-Dec-20 20:56 37.967074 -107.416518 56 35182ft 569kts
27-Dec-20 20:57 38.045363 -107.242900 57 35170ft 568kts
27-Dec-20 20:58 38.124757 -107.065633 57 35168ft 569kts
27-Dec-20 20:59 38.216996 -106.902920 41 35175ft 560kts
27-Dec-20 21:00 38.317188 -106.752165 43 35177ft 560kts
27-Dec-20 21:01 38.417502 -106.598889 43 35182ft 560kts
27-Dec-20 21:02 38.517423 -106.445482 43 35204ft 560kts
27-Dec-20 21:03 38.616608 -106.292579 43 35196ft 561kts
27-Dec-20 21:04 38.716485 -106.138679 43 34342ft 567kts
27-Dec-20 21:05 38.815007 -105.987672 42 32253ft 546kts
27-Dec-20 21:06 38.910910 -105.839791 42 30031ft 530kts
27-Dec-20 21:07 39.002010 -105.698141 44 27552ft 501kts
27-Dec-20 21:08 39.085581 -105.567810 46 25062ft 458kts
27-Dec-20 21:09 39.161484 -105.448885 47 23178ft 413kts
27-Dec-20 21:10 39.232538 -105.335724 48 21202ft 401kts
27-Dec-20 21:11 39.288578 -105.214775 73 19197ft 391kts
27-Dec-20 21:12 39.313020 -105.080591 78 17185ft 377kts
27-Dec-20 21:13 39.333240 -104.955637 77 15158ft 340kts
27-Dec-20 21:14 39.351549 -104.842596 76 13790ft 302kts
27-Dec-20 21:15 39.373077 -104.744617 66 12685ft 264kts
27-Dec-20 21:16 39.415431 -104.674590 22 12000ft 246kts
27-Dec-20 21:17 39.481433 -104.671155 345 11837ft 236kts
27-Dec-20 21:18 39.546072 -104.665447 0 10995ft 234kts
27-Dec-20 21:19 39.610354 -104.663245 358 9806ft 229kts
27-Dec-20 21:20 39.673957 -104.662449 358 8548ft 225kts
27-Dec-20 21:21 39.728428 -104.661783 358 7425ft 166kts
27-Dec-20 21:22 39.774170 -104.661242 357 6608ft 162kts
27-Dec-20 21:23 39.818241 -104.660573 357 5728ft 156kts
27-Dec-20 21:24 39.848516 -104.660323 0 5442ft 39kts
27-Dec-20 21:25 39.855961 -104.662331 2 5442ft 17kts
27-Dec-20 21:26 39.861204 -104.662321 1 5442ft 23kts
27-Dec-20 21:28 39.865003 -104.664894 264 5442ft 18kts
27-Dec-20 21:29 39.864471 -104.669989 200 5442ft 6kts
27-Dec-20 21:30 39.863606 -104.670388 210 5442ft 0kts

Navigation Log

Ident Type
Flight plan parsing failed, navigation log unavailable